Terminal Aerodrome Forecast
Issued by NWS Des Moines, IA

Home | Current Version | Previous Version | Text Only | Print | Product List | Glossary On
Versions: 1 2 3 4 5 6 7 8 9 10 11 12 13 14 15 16 17 18 19 20 21 22 23 24 25 26 27 28 29 30 31 32 33 34 35 36 37 38 39 40 41 42 43 44 45 46 47
000
FTUS43 KDMX 252345
TAFDSM
TAF
KDSM 252345Z 2600/2624 16007KT P6SM SCT200
     FM260200 15007KT P6SM SCT035 OVC100
     FM260600 13008KT P6SM SCT030 OVC070
     FM261000 10009KT 3SM -SN BKN012 OVC020
      TEMPO 2612/2614 1SM -SN OVC070
     FM261800 05010KT P6SM OVC020
     FM262100 01010KT P6SM OVC030=

USA.gov is the U.S. government's official web portal to all federal, state and local government web resources and services.